sensor_id;sensor_type;location;lat;lon;timestamp;P1;durP1;ratioP1;P2;durP2;ratioP2
13368;SDS011;6753;52.520;13.450;2023-08-12T00:00:04;454.05;;;243.25;;
13368;SDS011;6753;52.520;13.450;2023-08-12T00:00:22;456.05;;;245.68;;
13368;SDS011;6753;52.520;13.450;2023-08-12T00:00:34;455.85;;;244.02;;
13368;SDS011;6753;52.520;13.450;2023-08-12T00:00:46;448.52;;;241.88;;
13368;SDS011;6753;52.520;13.450;2023-08-12T00:00:57;447.00;;;240.40;;
13368;SDS011;6753;52.520;13.450;2023-08-12T00:01:07;446.43;;;238.70;;
13368;SDS011;6753;52.520;13.450;2023-08-12T00:01:18;443.35;;;236.45;;
13368;SDS011;6753;52.520;13.450;2023-08-12T00:01:31;441.98;;;234.60;;
13368;SDS011;6753;52.520;13.450;2023-08-12T00:01:42;438.87;;;233.80;;
13368;SDS011;6753;52.520;13.450;2023-08-12T00:01:52;441.80;;;234.18;;
13368;SDS011;6753;52.520;13.450;2023-08-12T00:02:03;440.92;;;231.85;;
13368;SDS011;6753;52.520;13.450;2023-08-12T00:02:14;442.45;;;229.95;;
13368;SDS011;6753;52.520;13.450;2023-08-12T00:02:25;439.90;;;227.70;;
13368;SDS011;6753;52.520;13.450;2023-08-12T00:02:36;442.00;;;227.15;;
13368;SDS011;6753;52.520;13.450;2023-08-12T00:02:48;444.67;;;228.55;;
13368;SDS011;6753;52.520;13.450;2023-08-12T00:02:59;443.27;;;228.38;;
13368;SDS011;6753;52.520;13.450;2023-08-12T00:03:12;441.00;;;229.48;;
13368;SDS011;6753;52.520;13.450;2023-08-12T00:03:23;443.13;;;229.88;;
13368;SDS011;6753;52.520;13.450;2023-08-12T00:03:34;440.50;;;229.33;;
13368;SDS011;6753;52.520;13.450;2023-08-12T00:03:45;437.67;;;227.75;;
13368;SDS011;6753;52.520;13.450;2023-08-12T00:03:55;437.48;;;225.82;;
13368;SDS011;6753;52.520;13.450;2023-08-12T00:04:06;435.67;;;224.57;;
13368;SDS011;6753;52.520;13.450;2023-08-12T00:04:17;433.98;;;224.95;;
13368;SDS011;6753;52.520;13.450;2023-08-12T00:04:28;433.70;;;225.77;;
13368;SDS011;6753;52.520;13.450;2023-08-12T00:04:39;433.17;;;224.73;;
13368;SDS011;6753;52.520;13.450;2023-08-12T00:04:50;433.67;;;225.13;;
13368;SDS011;6753;52.520;13.450;2023-08-12T00:05:01;432.83;;;225.75;;
13368;SDS011;6753;52.520;13.450;2023-08-12T00:05:12;433.10;;;225.15;;
13368;SDS011;6753;52.520;13.450;2023-08-12T00:05:23;432.35;;;225.15;;
13368;SDS011;6753;52.520;13.450;2023-08-12T00:05:35;428.95;;;222.35;;
13368;SDS011;6753;52.520;13.450;2023-08-12T00:05:46;426.50;;;221.15;;
13368;SDS011;6753;52.520;13.450;2023-08-12T00:05:57;424.63;;;220.65;;
13368;SDS011;6753;52.520;13.450;2023-08-12T00:06:10;426.48;;;221.50;;
13368;SDS011;6753;52.520;13.450;2023-08-12T00:06:22;429.00;;;220.35;;
13368;SDS011;6753;52.520;13.450;2023-08-12T00:06:32;429.50;;;220.60;;
13368;SDS011;6753;52.520;13.450;2023-08-12T00:06:43;433.10;;;221.07;;
13368;SDS011;6753;52.520;13.450;2023-08-12T00:06:54;435.13;;;221.23;;
13368;SDS011;6753;52.520;13.450;2023-08-12T00:07:05;435.20;;;219.13;;
13368;SDS011;6753;52.520;13.450;2023-08-12T00:07:15;434.33;;;218.20;;
13368;SDS011;6753;52.520;13.450;2023-08-12T00:07:26;433.25;;;217.13;;
13368;SDS011;6753;52.520;13.450;2023-08-12T00:07:37;434.30;;;216.43;;
13368;SDS011;6753;52.520;13.450;2023-08-12T00:07:48;431.70;;;215.15;;
13368;SDS011;6753;52.520;13.450;2023-08-12T00:07:59;430.30;;;215.00;;
13368;SDS011;6753;52.520;13.450;2023-08-12T00:08:11;424.30;;;213.95;;
13368;SDS011;6753;52.520;13.450;2023-08-12T00:08:22;418.05;;;210.40;;
13368;SDS011;6753;52.520;13.450;2023-08-12T00:08:33;414.95;;;210.20;;
13368;SDS011;6753;52.520;13.450;2023-08-12T00:08:43;412.70;;;209.95;;
13368;SDS011;6753;52.520;13.450;2023-08-12T00:08:54;412.00;;;210.77;;
13368;SDS011;6753;52.520;13.450;2023-08-12T00:09:05;413.67;;;209.40;;
13368;SDS011;6753;52.520;13.450;2023-08-12T00:09:17;410.30;;;209.50;;
13368;SDS011;6753;52.520;13.450;2023-08-12T00:09:28;410.85;;;209.45;;
13368;SDS011;6753;52.520;13.450;2023-08-12T00:09:38;406.58;;;206.43;;
13368;SDS011;6753;52.520;13.450;2023-08-12T00:09:50;409.40;;;205.75;;
13368;SDS011;6753;52.520;13.450;2023-08-12T00:10:01;408.48;;;206.45;;
13368;SDS011;6753;52.520;13.450;2023-08-12T00:10:14;410.45;;;207.15;;
13368;SDS011;6753;52.520;13.450;2023-08-12T00:10:25;414.23;;;208.45;;
13368;SDS011;6753;52.520;13.450;2023-08-12T00:10:36;417.38;;;210.35;;
13368;SDS011;6753;52.520;13.450;2023-08-12T00:10:47;417.63;;;210.80;;
13368;SDS011;6753;52.520;13.450;2023-08-12T00:10:57;419.20;;;209.10;;
13368;SDS011;6753;52.520;13.450;2023-08-12T00:11:08;419.80;;;209.13;;
13368;SDS011;6753;52.520;13.450;2023-08-12T00:11:19;421.77;;;211.13;;
13368;SDS011;6753;52.520;13.450;2023-08-12T00:11:30;421.02;;;210.93;;
13368;SDS011;6753;52.520;13.450;2023-08-12T00:11:41;422.08;;;210.30;;
13368;SDS011;6753;52.520;13.450;2023-08-12T00:11:52;418.10;;;210.80;;
13368;SDS011;6753;52.520;13.450;2023-08-12T00:12:03;413.52;;;210.63;;
13368;SDS011;6753;52.520;13.450;2023-08-12T00:12:14;415.40;;;210.30;;
13368;SDS011;6753;52.520;13.450;2023-08-12T00:12:25;410.98;;;209.13;;
13368;SDS011;6753;52.520;13.450;2023-08-12T00:12:36;409.42;;;209.75;;
13368;SDS011;6753;52.520;13.450;2023-08-12T00:12:47;408.75;;;210.23;;
13368;SDS011;6753;52.520;13.450;2023-08-12T00:12:58;410.33;;;210.95;;
13368;SDS011;6753;52.520;13.450;2023-08-12T00:13:09;408.13;;;210.65;;
13368;SDS011;6753;52.520;13.450;2023-08-12T00:13:23;409.33;;;211.85;;
13368;SDS011;6753;52.520;13.450;2023-08-12T00:13:34;409.05;;;212.50;;
13368;SDS011;6753;52.520;13.450;2023-08-12T00:13:45;409.25;;;211.50;;
13368;SDS011;6753;52.520;13.450;2023-08-12T00:13:55;415.13;;;212.87;;
13368;SDS011;6753;52.520;13.450;2023-08-12T00:14:06;412.63;;;211.95;;
13368;SDS011;6753;52.520;13.450;2023-08-12T00:14:17;413.10;;;210.55;;
13368;SDS011;6753;52.520;13.450;2023-08-12T00:14:28;411.80;;;208.40;;
13368;SDS011;6753;52.520;13.450;2023-08-12T00:14:38;408.40;;;206.63;;
13368;SDS011;6753;52.520;13.450;2023-08-12T00:14:49;405.05;;;204.15;;
13368;SDS011;6753;52.520;13.450;2023-08-12T00:15:00;406.73;;;203.43;;
13368;SDS011;6753;52.520;13.450;2023-08-12T00:15:11;403.77;;;202.23;;
13368;SDS011;6753;52.520;13.450;2023-08-12T00:15:24;402.98;;;203.00;;
13368;SDS011;6753;52.520;13.450;2023-08-12T00:15:35;405.02;;;202.98;;
13368;SDS011;6753;52.520;13.450;2023-08-12T00:15:46;406.10;;;203.45;;
13368;SDS011;6753;52.520;13.450;2023-08-12T00:15:57;407.45;;;203.68;;
13368;SDS011;6753;52.520;13.450;2023-08-12T00:16:08;407.87;;;203.03;;
13368;SDS011;6753;52.520;13.450;2023-08-12T00:16:18;410.75;;;203.10;;
13368;SDS011;6753;52.520;13.450;2023-08-12T00:16:29;409.92;;;203.73;;
13368;SDS011;6753;52.520;13.450;2023-08-12T00:16:40;414.38;;;203.70;;
13368;SDS011;6753;52.520;13.450;2023-08-12T00:16:51;412.65;;;203.85;;
13368;SDS011;6753;52.520;13.450;2023-08-12T00:17:02;409.67;;;204.70;;
13368;SDS011;6753;52.520;13.450;2023-08-12T00:17:13;405.48;;;203.70;;
13368;SDS011;6753;52.520;13.450;2023-08-12T00:17:24;404.17;;;203.43;;
13368;SDS011;6753;52.520;13.450;2023-08-12T00:17:35;398.33;;;201.30;;
13368;SDS011;6753;52.520;13.450;2023-08-12T00:17:47;393.95;;;199.48;;
13368;SDS011;6753;52.520;13.450;2023-08-12T00:18:00;391.55;;;198.55;;
13368;SDS011;6753;52.520;13.450;2023-08-12T00:18:14;392.85;;;198.85;;
13368;SDS011;6753;52.520;13.450;2023-08-12T00:18:25;394.65;;;199.48;;
13368;SDS011;6753;52.520;13.450;2023-08-12T00:18:37;394.20;;;199.75;;
13368;SDS011;6753;52.520;13.450;2023-08-12T00:18:47;396.50;;;200.98;;
13368;SDS011;6753;52.520;13.450;2023-08-12T00:18:58;397.13;;;200.70;;
13368;SDS011;6753;52.520;13.450;2023-08-12T00:19:09;397.80;;;200.07;;
13368;SDS011;6753;52.520;13.450;2023-08-12T00:19:20;397.20;;;198.52;;
13368;SDS011;6753;52.520;13.450;2023-08-12T00:19:30;400.27;;;198.30;;
13368;SDS011;6753;52.520;13.450;2023-08-12T00:19:41;400.85;;;199.00;;
13368;SDS011;6753;52.520;13.450;2023-08-12T00:19:52;400.77;;;197.03;;
13368;SDS011;6753;52.520;13.450;2023-08-12T00:20:03;401.08;;;197.02;;
13368;SDS011;6753;52.520;13.450;2023-08-12T00:20:16;402.17;;;196.93;;
13368;SDS011;6753;52.520;13.450;2023-08-12T00:20:28;398.42;;;196.05;;
13368;SDS011;6753;52.520;13.450;2023-08-12T00:20:38;395.30;;;194.53;;
13368;SDS011;6753;52.520;13.450;2023-08-12T00:20:49;388.67;;;192.70;;
13368;SDS011;6753;52.520;13.450;2023-08-12T00:21:01;387.85;;;193.98;;
13368;SDS011;6753;52.520;13.450;2023-08-12T00:21:16;386.50;;;193.10;;
13368;SDS011;6753;52.520;13.450;2023-08-12T00:21:26;387.75;;;192.75;;
13368;SDS011;6753;52.520;13.450;2023-08-12T00:21:37;387.93;;;192.23;;
13368;SDS011;6753;52.520;13.450;2023-08-12T00:21:48;392.67;;;194.40;;
13368;SDS011;6753;52.520;13.450;2023-08-12T00:21:59;390.65;;;191.48;;
13368;SDS011;6753;52.520;13.450;2023-08-12T00:22:10;387.38;;;190.38;;
13368;SDS011;6753;52.520;13.450;2023-08-12T00:22:23;382.93;;;190.03;;
13368;SDS011;6753;52.520;13.450;2023-08-12T00:22:33;382.70;;;189.52;;
13368;SDS011;6753;52.520;13.450;2023-08-12T00:22:44;379.23;;;187.93;;
13368;SDS011;6753;52.520;13.450;2023-08-12T00:22:56;376.88;;;188.02;;
13368;SDS011;6753;52.520;13.450;2023-08-12T00:23:07;377.35;;;188.25;;
13368;SDS011;6753;52.520;13.450;2023-08-12T00:23:18;378.33;;;188.43;;
13368;SDS011;6753;52.520;13.450;2023-08-12T00:23:29;379.40;;;187.65;;
13368;SDS011;6753;52.520;13.450;2023-08-12T00:23:40;379.47;;;187.27;;
13368;SDS011;6753;52.520;13.450;2023-08-12T00:23:54;380.70;;;187.50;;
13368;SDS011;6753;52.520;13.450;2023-08-12T00:24:05;376.35;;;184.10;;
13368;SDS011;6753;52.520;13.450;2023-08-12T00:24:16;371.63;;;182.60;;
13368;SDS011;6753;52.520;13.450;2023-08-12T00:24:27;370.27;;;181.48;;
13368;SDS011;6753;52.520;13.450;2023-08-12T00:24:37;363.77;;;179.25;;
13368;SDS011;6753;52.520;13.450;2023-08-12T00:24:48;362.67;;;178.65;;
13368;SDS011;6753;52.520;13.450;2023-08-12T00:24:59;364.40;;;178.68;;
13368;SDS011;6753;52.520;13.450;2023-08-12T00:25:10;366.27;;;181.40;;
13368;SDS011;6753;52.520;13.450;2023-08-12T00:25:21;368.83;;;182.25;;
13368;SDS011;6753;52.520;13.450;2023-08-12T00:25:32;370.40;;;184.70;;
13368;SDS011;6753;52.520;13.450;2023-08-12T00:25:42;376.48;;;185.50;;
13368;SDS011;6753;52.520;13.450;2023-08-12T00:25:57;378.23;;;186.57;;
13368;SDS011;6753;52.520;13.450;2023-08-12T00:26:08;376.52;;;187.82;;
13368;SDS011;6753;52.520;13.450;2023-08-12T00:26:19;378.05;;;187.90;;
13368;SDS011;6753;52.520;13.450;2023-08-12T00:26:29;379.45;;;187.63;;
13368;SDS011;6753;52.520;13.450;2023-08-12T00:26:40;374.13;;;186.50;;
13368;SDS011;6753;52.520;13.450;2023-08-12T00:26:51;369.75;;;185.68;;
13368;SDS011;6753;52.520;13.450;2023-08-12T00:27:02;374.42;;;185.20;;
13368;SDS011;6753;52.520;13.450;2023-08-12T00:27:12;371.42;;;183.23;;
13368;SDS011;6753;52.520;13.450;2023-08-12T00:27:25;369.38;;;182.25;;
13368;SDS011;6753;52.520;13.450;2023-08-12T00:27:40;367.00;;;180.95;;
13368;SDS011;6753;52.520;13.450;2023-08-12T00:27:51;366.38;;;180.32;;
13368;SDS011;6753;52.520;13.450;2023-08-12T00:28:02;361.83;;;180.25;;
13368;SDS011;6753;52.520;13.450;2023-08-12T00:28:13;362.42;;;180.27;;
13368;SDS011;6753;52.520;13.450;2023-08-12T00:28:24;360.60;;;178.82;;
13368;SDS011;6753;52.520;13.450;2023-08-12T00:28:35;365.58;;;179.32;;
13368;SDS011;6753;52.520;13.450;2023-08-12T00:28:48;365.48;;;180.90;;
13368;SDS011;6753;52.520;13.450;2023-08-12T00:28:59;367.95;;;180.85;;
13368;SDS011;6753;52.520;13.450;2023-08-12T00:29:09;366.97;;;180.33;;
13368;SDS011;6753;52.520;13.450;2023-08-12T00:29:21;368.63;;;180.60;;
13368;SDS011;6753;52.520;13.450;2023-08-12T00:29:31;363.63;;;181.25;;
13368;SDS011;6753;52.520;13.450;2023-08-12T00:29:43;364.23;;;181.20;;
13368;SDS011;6753;52.520;13.450;2023-08-12T00:29:54;362.30;;;179.75;;
13368;SDS011;6753;52.520;13.450;2023-08-12T00:30:08;360.05;;;178.45;;
13368;SDS011;6753;52.520;13.450;2023-08-12T00:30:19;361.33;;;178.30;;
13368;SDS011;6753;52.520;13.450;2023-08-12T00:30:31;363.67;;;178.57;;
13368;SDS011;6753;52.520;13.450;2023-08-12T00:30:42;364.00;;;176.82;;
13368;SDS011;6753;52.520;13.450;2023-08-12T00:30:52;362.00;;;177.68;;
13368;SDS011;6753;52.520;13.450;2023-08-12T00:31:03;364.13;;;177.18;;
13368;SDS011;6753;52.520;13.450;2023-08-12T00:31:14;365.83;;;177.05;;
13368;SDS011;6753;52.520;13.450;2023-08-12T00:31:25;360.93;;;176.33;;
13368;SDS011;6753;52.520;13.450;2023-08-12T00:31:36;358.35;;;173.95;;
13368;SDS011;6753;52.520;13.450;2023-08-12T00:31:47;356.85;;;173.60;;
13368;SDS011;6753;52.520;13.450;2023-08-12T00:31:58;355.73;;;173.80;;
13368;SDS011;6753;52.520;13.450;2023-08-12T00:32:09;355.48;;;174.98;;
13368;SDS011;6753;52.520;13.450;2023-08-12T00:32:19;357.70;;;175.85;;
13368;SDS011;6753;52.520;13.450;2023-08-12T00:32:30;356.90;;;175.82;;
13368;SDS011;6753;52.520;13.450;2023-08-12T00:32:41;362.37;;;177.27;;
13368;SDS011;6753;52.520;13.450;2023-08-12T00:32:52;361.70;;;176.77;;
13368;SDS011;6753;52.520;13.450;2023-08-12T00:33:02;361.13;;;174.65;;
13368;SDS011;6753;52.520;13.450;2023-08-12T00:33:14;353.17;;;173.15;;
13368;SDS011;6753;52.520;13.450;2023-08-12T00:33:25;354.33;;;172.23;;
13368;SDS011;6753;52.520;13.450;2023-08-12T00:33:36;353.57;;;172.73;;
13368;SDS011;6753;52.520;13.450;2023-08-12T00:33:47;356.45;;;173.25;;
13368;SDS011;6753;52.520;13.450;2023-08-12T00:33:57;352.73;;;174.05;;
13368;SDS011;6753;52.520;13.450;2023-08-12T00:34:08;357.00;;;175.43;;
13368;SDS011;6753;52.520;13.450;2023-08-12T00:34:19;359.88;;;174.88;;
13368;SDS011;6753;52.520;13.450;2023-08-12T00:34:30;361.42;;;175.38;;
13368;SDS011;6753;52.520;13.450;2023-08-12T00:34:40;354.40;;;174.20;;
13368;SDS011;6753;52.520;13.450;2023-08-12T00:34:51;355.40;;;174.45;;
13368;SDS011;6753;52.520;13.450;2023-08-12T00:35:03;359.65;;;174.52;;
13368;SDS011;6753;52.520;13.450;2023-08-12T00:35:15;358.60;;;174.52;;
13368;SDS011;6753;52.520;13.450;2023-08-12T00:35:26;356.92;;;174.80;;
13368;SDS011;6753;52.520;13.450;2023-08-12T00:35:37;354.60;;;174.70;;
13368;SDS011;6753;52.520;13.450;2023-08-12T00:35:47;352.43;;;173.60;;
13368;SDS011;6753;52.520;13.450;2023-08-12T00:35:58;350.17;;;173.35;;
13368;SDS011;6753;52.520;13.450;2023-08-12T00:36:09;349.13;;;173.90;;
13368;SDS011;6753;52.520;13.450;2023-08-12T00:36:20;344.50;;;172.55;;
13368;SDS011;6753;52.520;13.450;2023-08-12T00:36:30;345.97;;;172.60;;
13368;SDS011;6753;52.520;13.450;2023-08-12T00:36:41;348.85;;;172.50;;
13368;SDS011;6753;52.520;13.450;2023-08-12T00:36:53;349.08;;;171.45;;
13368;SDS011;6753;52.520;13.450;2023-08-12T00:37:04;346.73;;;170.87;;
13368;SDS011;6753;52.520;13.450;2023-08-12T00:37:14;348.67;;;170.45;;
13368;SDS011;6753;52.520;13.450;2023-08-12T00:37:25;350.00;;;171.75;;
13368;SDS011;6753;52.520;13.450;2023-08-12T00:37:36;350.85;;;171.88;;
13368;SDS011;6753;52.520;13.450;2023-08-12T00:37:47;347.50;;;172.27;;
13368;SDS011;6753;52.520;13.450;2023-08-12T00:37:57;349.75;;;173.50;;
13368;SDS011;6753;52.520;13.450;2023-08-12T00:38:08;351.50;;;173.63;;
13368;SDS011;6753;52.520;13.450;2023-08-12T00:38:19;349.70;;;172.77;;
13368;SDS011;6753;52.520;13.450;2023-08-12T00:38:30;351.13;;;172.55;;
13368;SDS011;6753;52.520;13.450;2023-08-12T00:38:40;349.83;;;172.50;;
13368;SDS011;6753;52.520;13.450;2023-08-12T00:38:51;351.33;;;173.02;;
13368;SDS011;6753;52.520;13.450;2023-08-12T00:39:03;350.60;;;171.52;;
13368;SDS011;6753;52.520;13.450;2023-08-12T00:39:14;345.00;;;170.48;;
13368;SDS011;6753;52.520;13.450;2023-08-12T00:39:25;340.23;;;169.32;;
13368;SDS011;6753;52.520;13.450;2023-08-12T00:39:36;338.13;;;167.70;;
13368;SDS011;6753;52.520;13.450;2023-08-12T00:39:47;342.67;;;166.82;;
13368;SDS011;6753;52.520;13.450;2023-08-12T00:39:58;340.63;;;165.93;;
13368;SDS011;6753;52.520;13.450;2023-08-12T00:40:09;341.75;;;167.02;;
13368;SDS011;6753;52.520;13.450;2023-08-12T00:40:20;343.48;;;167.50;;
13368;SDS011;6753;52.520;13.450;2023-08-12T00:40:31;341.53;;;165.47;;
13368;SDS011;6753;52.520;13.450;2023-08-12T00:40:42;340.50;;;165.18;;
13368;SDS011;6753;52.520;13.450;2023-08-12T00:40:53;338.02;;;164.88;;
13368;SDS011;6753;52.520;13.450;2023-08-12T00:41:08;335.88;;;164.45;;
13368;SDS011;6753;52.520;13.450;2023-08-12T00:41:19;335.83;;;164.73;;
13368;SDS011;6753;52.520;13.450;2023-08-12T00:41:30;333.58;;;165.45;;
13368;SDS011;6753;52.520;13.450;2023-08-12T00:41:40;337.65;;;167.45;;
13368;SDS011;6753;52.520;13.450;2023-08-12T00:41:51;337.43;;;167.63;;
13368;SDS011;6753;52.520;13.450;2023-08-12T00:42:02;337.92;;;167.40;;
13368;SDS011;6753;52.520;13.450;2023-08-12T00:42:13;334.75;;;166.45;;
13368;SDS011;6753;52.520;13.450;2023-08-12T00:42:24;335.55;;;166.45;;
13368;SDS011;6753;52.520;13.450;2023-08-12T00:42:35;336.08;;;164.70;;
13368;SDS011;6753;52.520;13.450;2023-08-12T00:42:46;335.60;;;164.38;;
13368;SDS011;6753;52.520;13.450;2023-08-12T00:42:56;338.50;;;164.50;;
13368;SDS011;6753;52.520;13.450;2023-08-12T00:43:09;340.20;;;164.18;;
13368;SDS011;6753;52.520;13.450;2023-08-12T00:43:20;344.92;;;164.20;;
13368;SDS011;6753;52.520;13.450;2023-08-12T00:43:30;340.57;;;162.77;;
13368;SDS011;6753;52.520;13.450;2023-08-12T00:43:41;337.65;;;161.98;;
13368;SDS011;6753;52.520;13.450;2023-08-12T00:43:52;335.50;;;161.52;;
13368;SDS011;6753;52.520;13.450;2023-08-12T00:44:03;332.10;;;161.23;;
13368;SDS011;6753;52.520;13.450;2023-08-12T00:44:14;334.05;;;162.35;;
13368;SDS011;6753;52.520;13.450;2023-08-12T00:44:25;334.33;;;163.10;;
13368;SDS011;6753;52.520;13.450;2023-08-12T00:44:35;341.77;;;164.90;;
13368;SDS011;6753;52.520;13.450;2023-08-12T00:44:47;344.60;;;166.77;;
13368;SDS011;6753;52.520;13.450;2023-08-12T00:44:58;346.80;;;168.27;;
13368;SDS011;6753;52.520;13.450;2023-08-12T00:45:09;349.00;;;169.30;;
13368;SDS011;6753;52.520;13.450;2023-08-12T00:45:20;348.35;;;170.00;;
13368;SDS011;6753;52.520;13.450;2023-08-12T00:45:32;344.30;;;169.87;;
13368;SDS011;6753;52.520;13.450;2023-08-12T00:45:44;337.67;;;167.57;;
13368;SDS011;6753;52.520;13.450;2023-08-12T00:45:55;337.40;;;166.18;;
13368;SDS011;6753;52.520;13.450;2023-08-12T00:46:06;334.00;;;163.27;;
13368;SDS011;6753;52.520;13.450;2023-08-12T00:46:17;330.08;;;162.45;;
13368;SDS011;6753;52.520;13.450;2023-08-12T00:46:28;331.17;;;162.52;;
13368;SDS011;6753;52.520;13.450;2023-08-12T00:46:40;334.75;;;163.23;;
13368;SDS011;6753;52.520;13.450;2023-08-12T00:46:52;333.52;;;163.50;;
13368;SDS011;6753;52.520;13.450;2023-08-12T00:47:05;331.80;;;164.35;;
13368;SDS011;6753;52.520;13.450;2023-08-12T00:47:15;331.45;;;163.82;;
13368;SDS011;6753;52.520;13.450;2023-08-12T00:47:27;339.67;;;165.25;;
13368;SDS011;6753;52.520;13.450;2023-08-12T00:47:39;335.30;;;164.20;;
13368;SDS011;6753;52.520;13.450;2023-08-12T00:47:51;333.90;;;163.10;;
13368;SDS011;6753;52.520;13.450;2023-08-12T00:48:03;334.70;;;163.18;;
13368;SDS011;6753;52.520;13.450;2023-08-12T00:48:14;336.15;;;163.65;;
13368;SDS011;6753;52.520;13.450;2023-08-12T00:48:28;329.98;;;162.48;;
13368;SDS011;6753;52.520;13.450;2023-08-12T00:48:39;332.60;;;163.23;;
13368;SDS011;6753;52.520;13.450;2023-08-12T00:48:51;332.92;;;163.63;;
13368;SDS011;6753;52.520;13.450;2023-08-12T00:49:02;334.30;;;163.75;;
13368;SDS011;6753;52.520;13.450;2023-08-12T00:49:13;340.33;;;164.43;;
13368;SDS011;6753;52.520;13.450;2023-08-12T00:49:26;341.67;;;165.57;;
13368;SDS011;6753;52.520;13.450;2023-08-12T00:49:37;341.42;;;165.10;;
13368;SDS011;6753;52.520;13.450;2023-08-12T00:49:51;339.23;;;164.70;;
13368;SDS011;6753;52.520;13.450;2023-08-12T00:50:01;335.03;;;163.53;;
13368;SDS011;6753;52.520;13.450;2023-08-12T00:50:13;328.48;;;161.93;;
13368;SDS011;6753;52.520;13.450;2023-08-12T00:50:26;328.20;;;160.10;;
13368;SDS011;6753;52.520;13.450;2023-08-12T00:50:38;328.08;;;159.55;;
13368;SDS011;6753;52.520;13.450;2023-08-12T00:50:50;327.70;;;160.43;;
13368;SDS011;6753;52.520;13.450;2023-08-12T00:51:02;329.25;;;160.82;;
13368;SDS011;6753;52.520;13.450;2023-08-12T00:51:14;326.38;;;160.70;;
13368;SDS011;6753;52.520;13.450;2023-08-12T00:51:26;326.98;;;161.95;;
13368;SDS011;6753;52.520;13.450;2023-08-12T00:51:37;323.90;;;161.35;;
13368;SDS011;6753;52.520;13.450;2023-08-12T00:51:51;325.50;;;160.30;;
13368;SDS011;6753;52.520;13.450;2023-08-12T00:52:03;323.45;;;160.10;;
13368;SDS011;6753;52.520;13.450;2023-08-12T00:52:14;322.92;;;159.65;;
13368;SDS011;6753;52.520;13.450;2023-08-12T00:52:27;321.00;;;158.88;;
13368;SDS011;6753;52.520;13.450;2023-08-12T00:52:39;324.95;;;160.38;;
13368;SDS011;6753;52.520;13.450;2023-08-12T00:52:50;324.23;;;160.40;;
13368;SDS011;6753;52.520;13.450;2023-08-12T00:53:01;331.85;;;161.15;;
13368;SDS011;6753;52.520;13.450;2023-08-12T00:53:12;333.02;;;161.48;;
13368;SDS011;6753;52.520;13.450;2023-08-12T00:53:24;335.08;;;162.52;;
13368;SDS011;6753;52.520;13.450;2023-08-12T00:53:35;334.20;;;161.77;;
13368;SDS011;6753;52.520;13.450;2023-08-12T00:53:47;330.52;;;160.57;;
13368;SDS011;6753;52.520;13.450;2023-08-12T00:54:00;324.85;;;158.95;;
13368;SDS011;6753;52.520;13.450;2023-08-12T00:54:14;326.40;;;158.75;;
13368;SDS011;6753;52.520;13.450;2023-08-12T00:54:26;326.42;;;158.20;;
13368;SDS011;6753;52.520;13.450;2023-08-12T00:54:38;328.15;;;159.15;;
13368;SDS011;6753;52.520;13.450;2023-08-12T00:54:49;327.80;;;159.13;;
13368;SDS011;6753;52.520;13.450;2023-08-12T00:55:00;327.10;;;159.70;;
13368;SDS011;6753;52.520;13.450;2023-08-12T00:55:12;326.05;;;159.43;;
13368;SDS011;6753;52.520;13.450;2023-08-12T00:55:22;323.58;;;159.18;;
13368;SDS011;6753;52.520;13.450;2023-08-12T00:55:33;322.97;;;159.17;;
13368;SDS011;6753;52.520;13.450;2023-08-12T00:55:45;324.17;;;159.02;;
13368;SDS011;6753;52.520;13.450;2023-08-12T00:55:55;330.33;;;159.67;;
13368;SDS011;6753;52.520;13.450;2023-08-12T00:56:06;330.00;;;160.00;;
13368;SDS011;6753;52.520;13.450;2023-08-12T00:56:17;333.83;;;161.95;;
13368;SDS011;6753;52.520;13.450;2023-08-12T00:56:29;331.73;;;161.68;;
13368;SDS011;6753;52.520;13.450;2023-08-12T00:56:41;330.20;;;161.73;;
13368;SDS011;6753;52.520;13.450;2023-08-12T00:56:53;325.63;;;161.13;;
13368;SDS011;6753;52.520;13.450;2023-08-12T00:57:04;322.15;;;161.10;;
13368;SDS011;6753;52.520;13.450;2023-08-12T00:57:17;320.95;;;160.68;;
13368;SDS011;6753;52.520;13.450;2023-08-12T00:57:28;324.52;;;161.35;;
13368;SDS011;6753;52.520;13.450;2023-08-12T00:57:39;328.27;;;161.95;;
13368;SDS011;6753;52.520;13.450;2023-08-12T00:57:50;327.33;;;161.93;;
13368;SDS011;6753;52.520;13.450;2023-08-12T00:58:01;328.27;;;161.43;;
13368;SDS011;6753;52.520;13.450;2023-08-12T00:58:13;327.77;;;160.68;;
13368;SDS011;6753;52.520;13.450;2023-08-12T00:58:25;324.67;;;159.30;;
13368;SDS011;6753;52.520;13.450;2023-08-12T00:58:35;320.00;;;157.82;;
13368;SDS011;6753;52.520;13.450;2023-08-12T00:58:47;319.95;;;157.18;;
13368;SDS011;6753;52.520;13.450;2023-08-12T00:58:59;321.98;;;157.98;;
13368;SDS011;6753;52.520;13.450;2023-08-12T00:59:12;321.38;;;158.48;;
13368;SDS011;6753;52.520;13.450;2023-08-12T00:59:23;320.77;;;158.15;;
13368;SDS011;6753;52.520;13.450;2023-08-12T00:59:35;319.88;;;158.57;;
13368;SDS011;6753;52.520;13.450;2023-08-12T00:59:46;320.85;;;158.90;;
13368;SDS011;6753;52.520;13.450;2023-08-12T00:59:59;324.92;;;158.93;;
13368;SDS011;6753;52.520;13.450;2023-08-12T01:00:10;323.73;;;158.13;;
13368;SDS011;6753;52.520;13.450;2023-08-12T01:00:22;325.77;;;158.40;;
13368;SDS011;6753;52.520;13.450;2023-08-12T01:00:36;324.38;;;157.93;;
13368;SDS011;6753;52.520;13.450;2023-08-12T01:00:50;324.58;;;159.07;;
13368;SDS011;6753;52.520;13.450;2023-08-12T01:01:00;323.98;;;158.52;;
13368;SDS011;6753;52.520;13.450;2023-08-12T01:01:11;321.25;;;158.20;;
13368;SDS011;6753;52.520;13.450;2023-08-12T01:01:23;319.55;;;158.38;;
13368;SDS011;6753;52.520;13.450;2023-08-12T01:01:34;321.50;;;158.13;;
13368;SDS011;6753;52.520;13.450;2023-08-12T01:01:47;320.23;;;156.10;;
13368;SDS011;6753;52.520;13.450;2023-08-12T01:01:58;316.48;;;155.73;;
13368;SDS011;6753;52.520;13.450;2023-08-12T01:02:09;318.30;;;154.70;;
13368;SDS011;6753;52.520;13.450;2023-08-12T01:02:21;320.50;;;155.93;;
13368;SDS011;6753;52.520;13.450;2023-08-12T01:02:32;319.27;;;157.10;;
13368;SDS011;6753;52.520;13.450;2023-08-12T01:02:44;318.50;;;158.07;;
13368;SDS011;6753;52.520;13.450;2023-08-12T01:02:58;318.90;;;158.20;;
13368;SDS011;6753;52.520;13.450;2023-08-12T01:03:11;317.23;;;158.95;;
13368;SDS011;6753;52.520;13.450;2023-08-12T01:03:21;320.63;;;158.32;;
13368;SDS011;6753;52.520;13.450;2023-08-12T01:03:32;322.13;;;158.15;;
13368;SDS011;6753;52.520;13.450;2023-08-12T01:03:43;323.98;;;157.82;;
13368;SDS011;6753;52.520;13.450;2023-08-12T01:03:54;323.27;;;157.63;;
13368;SDS011;6753;52.520;13.450;2023-08-12T01:04:06;324.98;;;157.85;;
13368;SDS011;6753;52.520;13.450;2023-08-12T01:04:18;321.00;;;157.10;;